LFMU 181700Z AUTO 30016KT CAVOK 27/12 Q1012 TEMPO SHRA BKN014 SCT030CB BKN050 BECMG 30017G27KT

ElémentsDécodage
LFMU Station météo située sur l'aérodrome de BEZIERS Vias
181700Z émis le 18 du mois à 17h00 UTC
AUTO Bulletin édité par un automate
30016KT vent du 300°, 16 noeuds
CAVOK Ceiling And Visibility OK
- Visibilité de 10 Km ou plus
- Pas de nuage au-dessous de 1500m ou au-dessous de l'altitude minimale du secteur la plus élevée (si>1500m) et absence de CB
- pas de temps présent significatif
27/12 température 27°C, point de rosée 12°C
 soit une humidité relative de 39%
Q1012 la pression au niveau de la mer (QNH) est de 1012 hPa
TEMPO fluctuation temporaire prévue
SHRA averse(s) de pluie
BKN014 nuages morcelés (5/8 à 7/8) à 1400 pieds
SCT030CB nuages épars (3/8 à 4/8) à 3000 pieds
 présence de cumulonimbus
BKN050 nuages morcelés (5/8 à 7/8) à 5000 pieds
BECMG fluctuation du temps prévue
30017G27KT vent du 300°, moyenne: 17 noeuds, avec rafales à 27 noeuds